Weather at Rogue Valley Medical Center Heliport

Public forecast

Using degrees Fahrenheit for public forecast. Weather courtesy of forecast.io.

Closest aviation weather report (METAR) to Rogue Valley Medical Center Heliport

Closest report is Rogue Valley International Medford Airport, 3.9 nm (7.1 km) NNW. Retrieved 2021/06/20 09:53 UTC (13 minutes ago):

KMFR 200953Z AUTO 00000KT 10SM CLR 19/11 A2990 RMK AO2 SLP113 T01940111

Closest aviation forecast (TAF) to Rogue Valley Medical Center Heliport

Closest forecast is Rogue Valley International Medford Airport, 3.9 nm (7.1 km) NNW. Retrieved 2021/06/20 06:22 UTC (4 hours ago):

TAF KMFR 200520Z 2006/2106 VRB03KT P6SM SKC FM202200 31009KT P6SM SKC